createdAt,value
2023-04-15T00:00:18.985Z,3.48
2023-04-15T00:03:25.386Z,3.47
2023-04-15T00:06:31.338Z,3.15
2023-04-15T00:09:35.851Z,3.32
2023-04-15T00:12:41.269Z,3.28
2023-04-15T00:15:45.749Z,3.29
2023-04-15T00:18:50.558Z,3.22
2023-04-15T00:21:55.681Z,3.26
2023-04-15T00:25:00.202Z,3.41
2023-04-15T00:28:04.997Z,3.45
2023-04-15T00:31:09.770Z,3.13
2023-04-15T00:34:14.941Z,3.24
2023-04-15T00:37:21.211Z,3.24
2023-04-15T00:40:26.193Z,3.12
2023-04-15T00:43:31.210Z,3.21
2023-04-15T00:46:38.266Z,3.46
2023-04-15T00:49:42.823Z,3.37
2023-04-15T00:52:47.502Z,3.11
2023-04-15T00:55:54.046Z,3.35
2023-04-15T00:58:59.582Z,3.26
2023-04-15T01:02:04.903Z,3.07
2023-04-15T01:05:09.717Z,3.22
2023-04-15T01:08:14.796Z,3.06
2023-04-15T01:11:20.066Z,3.14
2023-04-15T01:14:26.138Z,2.96
2023-04-15T01:17:30.719Z,3.26
2023-04-15T01:20:36.315Z,3.27
2023-04-15T01:23:41.030Z,3.29
2023-04-15T01:26:46.632Z,3.42
2023-04-15T01:29:51.523Z,3.12
2023-04-15T01:32:56.211Z,3.32
2023-04-15T01:36:01.625Z,3.08
2023-04-15T01:39:06.667Z,3.35
2023-04-15T01:42:11.583Z,3.27
2023-04-15T01:45:16.648Z,3.07
2023-04-15T01:48:21.670Z,2.85
2023-04-15T01:51:27.284Z,2.98
2023-04-15T01:54:31.838Z,3.11
2023-04-15T01:57:37.024Z,3.07
2023-04-15T02:00:41.885Z,3.04
2023-04-15T02:03:47.889Z,2.89
2023-04-15T02:06:53.381Z,3.34
2023-04-15T02:09:59.638Z,2.75
2023-04-15T02:13:04.795Z,3.12
2023-04-15T02:16:19.602Z,3.15
2023-04-15T02:19:25.166Z,2.91
2023-04-15T02:22:30.343Z,2.81
2023-04-15T02:25:35.013Z,3.00
2023-04-15T02:28:42.326Z,2.93
2023-04-15T02:31:48.123Z,2.98
2023-04-15T02:34:53.145Z,3.18
2023-04-15T02:37:57.786Z,3.04
2023-04-15T02:41:02.963Z,2.98
2023-04-15T02:44:10.915Z,3.03
2023-04-15T02:47:16.428Z,3.05
2023-04-15T02:50:21.031Z,2.92
2023-04-15T02:53:26.861Z,2.84
2023-04-15T02:56:31.645Z,2.56
2023-04-15T02:59:36.229Z,2.85
2023-04-15T03:02:42.299Z,2.68
2023-04-15T03:05:47.120Z,2.69
2023-04-15T03:08:51.874Z,2.90
2023-04-15T03:11:57.147Z,2.73
2023-04-15T03:15:02.583Z,2.75
2023-04-15T03:18:13.807Z,2.71
2023-04-15T03:21:20.011Z,2.85
2023-04-15T03:24:27.158Z,2.61
2023-04-15T03:27:34.049Z,2.88
2023-04-15T03:30:41.129Z,2.56
2023-04-15T03:33:47.049Z,2.44
2023-04-15T03:36:52.173Z,2.68
2023-04-15T03:39:56.737Z,3.11
2023-04-15T03:43:01.749Z,2.91
2023-04-15T03:46:06.933Z,3.00
2023-04-15T03:49:11.502Z,2.88
2023-04-15T03:52:16.313Z,2.87
2023-04-15T03:55:21.030Z,2.98
2023-04-15T03:58:25.637Z,2.64
2023-04-15T04:01:30.281Z,2.53
2023-04-15T04:04:34.912Z,2.49
2023-04-15T04:07:39.494Z,2.36
2023-04-15T04:10:43.999Z,2.59
2023-04-15T04:13:48.871Z,2.73
2023-04-15T04:16:53.674Z,2.71
2023-04-15T04:19:58.328Z,2.53
2023-04-15T04:23:02.829Z,2.66
2023-04-15T04:26:07.451Z,2.77
2023-04-15T04:29:12.379Z,2.64
2023-04-15T04:32:17.188Z,2.69
2023-04-15T04:35:22.013Z,2.90
2023-04-15T04:38:26.560Z,2.74
2023-04-15T04:41:32.284Z,2.45
2023-04-15T04:44:37.220Z,2.51
2023-04-15T04:47:41.780Z,2.49
2023-04-15T04:50:47.359Z,2.43
2023-04-15T04:53:51.932Z,2.12
2023-04-15T04:56:57.831Z,2.15
2023-04-15T05:00:04.904Z,2.40
2023-04-15T05:03:09.597Z,2.58
2023-04-15T05:06:14.426Z,2.63
2023-04-15T05:09:19.200Z,2.49
2023-04-15T05:12:23.730Z,2.15
2023-04-15T05:15:28.371Z,2.37
2023-04-15T05:18:33.474Z,2.32
2023-04-15T05:21:39.523Z,2.39
2023-04-15T05:24:44.216Z,2.35
2023-04-15T05:27:49.071Z,2.33
2023-04-15T05:30:53.742Z,2.43
2023-04-15T05:33:58.314Z,2.23
2023-04-15T05:37:03.384Z,2.38
2023-04-15T05:40:10.479Z,2.28
2023-04-15T05:43:15.215Z,2.31
2023-04-15T05:46:19.889Z,2.88
2023-04-15T05:49:24.409Z,2.73
2023-04-15T05:52:29.054Z,2.66
2023-04-15T05:55:33.520Z,2.52
2023-04-15T05:58:38.025Z,2.45
2023-04-15T06:01:42.885Z,2.09
2023-04-15T06:04:47.942Z,1.97
2023-04-15T06:07:52.765Z,2.08
2023-04-15T06:10:58.503Z,2.13
2023-04-15T06:14:03.158Z,2.09
2023-04-15T06:17:08.418Z,2.18
2023-04-15T06:20:13.025Z,1.99
2023-04-15T06:23:17.651Z,2.57
2023-04-15T06:26:22.480Z,3.43
2023-04-15T06:29:27.104Z,3.77
2023-04-15T06:32:32.648Z,3.41
2023-04-15T06:35:37.655Z,2.60
2023-04-15T06:38:42.459Z,2.61
2023-04-15T06:41:47.310Z,2.64
2023-04-15T06:44:51.881Z,2.43
2023-04-15T06:47:56.575Z,2.12
2023-04-15T06:51:01.569Z,2.44
2023-04-15T06:54:06.520Z,2.38
2023-04-15T06:57:11.335Z,2.40
2023-04-15T07:00:16.675Z,2.74
2023-04-15T07:03:21.223Z,2.74
2023-04-15T07:06:25.983Z,2.54
2023-04-15T07:09:30.576Z,2.93
2023-04-15T07:12:35.896Z,2.67
2023-04-15T07:15:40.469Z,2.75
2023-04-15T07:18:45.087Z,2.76
2023-04-15T07:21:49.562Z,3.18
2023-04-15T07:24:54.135Z,3.02
2023-04-15T07:27:58.849Z,3.04
2023-04-15T07:31:04.154Z,3.12
2023-04-15T07:34:09.008Z,3.13
2023-04-15T07:37:13.893Z,3.07
2023-04-15T07:40:18.605Z,2.98
2023-04-15T07:43:23.494Z,2.92
2023-04-15T07:46:28.635Z,2.98
2023-04-15T07:49:33.206Z,3.09
2023-04-15T07:52:40.677Z,2.93
2023-04-15T07:55:45.342Z,3.18
2023-04-15T07:58:49.918Z,3.04
2023-04-15T08:01:55.278Z,3.48
2023-04-15T08:05:01.725Z,3.51
2023-04-15T08:08:06.965Z,3.42
2023-04-15T08:11:12.772Z,3.52
2023-04-15T08:14:17.399Z,3.58
2023-04-15T08:17:22.191Z,3.42
2023-04-15T08:20:27.746Z,3.66
2023-04-15T08:23:33.384Z,3.53
2023-04-15T08:26:37.960Z,3.24
2023-04-15T08:29:42.544Z,3.44
2023-04-15T08:32:47.694Z,4.02
2023-04-15T08:35:52.982Z,3.74
2023-04-15T08:38:57.726Z,3.78
2023-04-15T08:42:05.590Z,3.95
2023-04-15T08:45:13.596Z,4.31
2023-04-15T08:48:18.474Z,3.94
2023-04-15T08:51:24.980Z,3.53
2023-04-15T08:54:30.411Z,3.97
2023-04-15T08:57:36.766Z,4.11
2023-04-15T09:00:42.242Z,4.01
2023-04-15T09:03:49.349Z,4.07
2023-04-15T09:06:54.158Z,3.91
2023-04-15T09:09:58.756Z,3.86
2023-04-15T09:13:04.422Z,4.05
2023-04-15T09:16:09.581Z,4.37
2023-04-15T09:19:24.449Z,4.36
2023-04-15T09:22:32.906Z,4.21
2023-04-15T09:25:37.955Z,4.41
2023-04-15T09:28:43.488Z,4.51
2023-04-15T09:31:47.998Z,4.08
2023-04-15T09:34:52.772Z,3.72
2023-04-15T09:38:06.237Z,4.63
2023-04-15T09:41:19.575Z,4.43
2023-04-15T09:44:26.050Z,4.26
2023-04-15T09:47:32.154Z,4.57
2023-04-15T09:50:41.325Z,4.45
2023-04-15T09:53:45.887Z,4.60
2023-04-15T09:56:50.413Z,4.71
2023-04-15T09:59:55.018Z,4.19
2023-04-15T10:02:59.984Z,4.43
2023-04-15T10:06:05.662Z,4.70
2023-04-15T10:09:10.581Z,4.44
2023-04-15T10:12:17.672Z,4.31
2023-04-15T10:15:23.459Z,4.49
2023-04-15T10:18:29.686Z,4.63
2023-04-15T10:21:35.031Z,4.53
2023-04-15T10:24:40.760Z,4.75
2023-04-15T10:27:45.712Z,4.59
2023-04-15T10:30:50.315Z,4.91
2023-04-15T10:33:55.485Z,4.19
2023-04-15T10:37:06.186Z,4.45
2023-04-15T10:40:31.382Z,4.94
2023-04-15T10:43:37.321Z,4.95
2023-04-15T10:46:44.742Z,4.55
2023-04-15T10:49:58.038Z,4.86
2023-04-15T10:53:04.890Z,5.40
2023-04-15T10:56:10.744Z,5.27
2023-04-15T10:59:16.393Z,5.07
2023-04-15T11:02:21.272Z,4.96
2023-04-15T11:05:41.497Z,5.21
2023-04-15T11:09:32.342Z,5.33
2023-04-15T11:12:37.644Z,5.09
2023-04-15T11:15:46.510Z,4.60
2023-04-15T11:18:55.487Z,4.71
2023-04-15T11:22:10.492Z,4.84
2023-04-15T11:25:32.211Z,4.97
2023-04-15T11:28:41.011Z,4.87
2023-04-15T11:31:49.594Z,5.04
2023-04-15T11:34:54.627Z,5.04
2023-04-15T11:38:03.802Z,4.74
2023-04-15T11:41:08.687Z,5.06
2023-04-15T11:44:17.889Z,5.40
2023-04-15T11:47:23.833Z,5.22
2023-04-15T11:50:28.339Z,4.96
2023-04-15T11:53:52.181Z,4.76
2023-04-15T11:56:57.363Z,4.92
2023-04-15T12:00:02.030Z,5.19
2023-04-15T12:03:30.941Z,4.82
2023-04-15T12:06:36.925Z,4.32
2023-04-15T12:09:42.477Z,4.47
2023-04-15T12:12:49.851Z,4.52
2023-04-15T12:15:55.818Z,4.32
2023-04-15T12:19:01.113Z,4.63
2023-04-15T12:22:10.993Z,5.10
2023-04-15T12:25:15.988Z,5.23
2023-04-15T12:28:20.619Z,5.09
2023-04-15T12:31:25.286Z,4.40
2023-04-15T12:34:35.731Z,4.71
2023-04-15T12:37:40.569Z,4.95
2023-04-15T12:40:47.113Z,5.11
2023-04-15T12:43:52.149Z,5.26
2023-04-15T12:46:57.501Z,4.53
2023-04-15T12:50:02.333Z,5.03
2023-04-15T12:53:07.321Z,4.85
2023-04-15T12:56:11.916Z,4.92
2023-04-15T12:59:21.122Z,5.19
2023-04-15T13:02:28.791Z,5.50
2023-04-15T13:05:33.478Z,5.85
2023-04-15T13:08:42.546Z,5.91
2023-04-15T13:11:49.964Z,6.09
2023-04-15T13:14:54.743Z,5.13
2023-04-15T13:17:59.351Z,5.54
2023-04-15T13:21:05.319Z,6.15
2023-04-15T13:24:10.258Z,6.15
2023-04-15T13:27:14.818Z,6.03
2023-04-15T13:30:19.337Z,5.97
2023-04-15T13:33:23.955Z,6.14
2023-04-15T13:36:28.500Z,5.99
2023-04-15T13:39:33.182Z,6.78
2023-04-15T13:42:37.789Z,6.30
2023-04-15T13:45:42.518Z,6.08
2023-04-15T13:48:47.050Z,6.31
2023-04-15T13:51:52.173Z,6.19
2023-04-15T13:55:08.161Z,5.99
2023-04-15T13:58:21.437Z,6.01
2023-04-15T14:01:26.533Z,5.80
2023-04-15T14:04:32.096Z,5.61
2023-04-15T14:07:37.326Z,5.63
2023-04-15T14:10:44.424Z,6.47
2023-04-15T14:13:49.171Z,7.23
2023-04-15T14:16:56.380Z,7.33
2023-04-15T14:20:01.073Z,6.67
2023-04-15T14:23:05.719Z,6.82
2023-04-15T14:26:10.474Z,6.74
2023-04-15T14:29:15.030Z,6.15
2023-04-15T14:32:19.878Z,6.90
2023-04-15T14:35:26.712Z,6.20
2023-04-15T14:38:31.465Z,6.55
2023-04-15T14:41:36.178Z,6.46
2023-04-15T14:44:41.001Z,5.56
2023-04-15T14:47:45.766Z,5.97
2023-04-15T14:50:50.366Z,5.82
2023-04-15T14:53:54.894Z,5.76
2023-04-15T14:56:59.552Z,5.91
2023-04-15T15:00:05.477Z,6.01
2023-04-15T15:03:15.060Z,5.80
2023-04-15T15:06:21.615Z,5.72
2023-04-15T15:09:26.551Z,5.86
2023-04-15T15:12:31.099Z,6.07
2023-04-15T15:15:37.124Z,5.90
2023-04-15T15:18:41.733Z,6.53
2023-04-15T15:21:46.980Z,6.19
2023-04-15T15:24:51.547Z,6.19
2023-04-15T15:27:57.605Z,5.82
2023-04-15T15:31:02.146Z,5.78
2023-04-15T15:34:06.722Z,5.78
2023-04-15T15:37:11.645Z,5.93
2023-04-15T15:40:16.404Z,5.79
2023-04-15T15:43:21.193Z,5.77
2023-04-15T15:46:28.042Z,6.40
2023-04-15T15:49:32.882Z,6.04
2023-04-15T15:52:37.638Z,6.09
2023-04-15T15:55:42.157Z,5.85
2023-04-15T15:58:46.686Z,5.79
2023-04-15T16:01:51.925Z,5.72
2023-04-15T16:04:56.634Z,5.50
2023-04-15T16:08:01.742Z,5.61
2023-04-15T16:11:06.333Z,5.63
2023-04-15T16:14:11.183Z,5.31
2023-04-15T16:17:15.794Z,5.54
2023-04-15T16:20:20.493Z,5.63
2023-04-15T16:23:25.062Z,5.53
2023-04-15T16:26:29.750Z,5.68
2023-04-15T16:29:34.923Z,5.49
2023-04-15T16:32:39.527Z,5.41
2023-04-15T16:35:44.112Z,5.59
2023-04-15T16:38:48.769Z,5.51
2023-04-15T16:41:53.672Z,5.28
2023-04-15T16:44:58.318Z,5.10
2023-04-15T16:48:02.921Z,5.51
2023-04-15T16:51:07.560Z,5.32
2023-04-15T16:54:12.099Z,5.42
2023-04-15T16:57:16.820Z,5.27
2023-04-15T17:00:22.984Z,5.57
2023-04-15T17:03:27.750Z,5.21
2023-04-15T17:06:32.430Z,5.26
2023-04-15T17:09:39.197Z,5.04
2023-04-15T17:12:43.869Z,5.20
2023-04-15T17:15:48.559Z,5.28
2023-04-15T17:18:53.158Z,5.22
2023-04-15T17:21:58.200Z,5.46
2023-04-15T17:25:03.634Z,5.07
2023-04-15T17:28:08.251Z,5.28
2023-04-15T17:31:12.926Z,5.15
2023-04-15T17:34:17.571Z,5.22
2023-04-15T17:37:22.218Z,5.43
2023-04-15T17:40:27.103Z,4.93
2023-04-15T17:43:31.916Z,5.24
2023-04-15T17:46:36.648Z,4.99
2023-04-15T17:49:41.218Z,5.20
2023-04-15T17:52:48.274Z,5.11
2023-04-15T17:55:53.743Z,5.01
2023-04-15T17:58:58.748Z,5.21
2023-04-15T18:02:03.656Z,4.97
2023-04-15T18:05:08.647Z,5.01
2023-04-15T18:08:13.550Z,4.70
2023-04-15T18:11:18.200Z,4.85
2023-04-15T18:14:33.693Z,4.99
2023-04-15T18:17:39.084Z,5.04
2023-04-15T18:20:43.648Z,5.03
2023-04-15T18:23:48.153Z,5.06
2023-04-15T18:26:52.936Z,4.68
2023-04-15T18:29:57.712Z,4.63
2023-04-15T18:33:02.478Z,4.65
2023-04-15T18:36:07.142Z,4.89
2023-04-15T18:39:11.817Z,4.95
2023-04-15T18:42:16.365Z,4.90
2023-04-15T18:45:20.950Z,4.87
2023-04-15T18:48:28.595Z,4.67
2023-04-15T18:51:33.305Z,4.88
2023-04-15T18:54:38.189Z,4.52
2023-04-15T18:57:44.947Z,4.81
2023-04-15T19:00:49.786Z,4.84
2023-04-15T19:03:54.411Z,4.57
2023-04-15T19:06:59.193Z,4.76
2023-04-15T19:10:05.866Z,4.72
2023-04-15T19:13:10.512Z,4.37
2023-04-15T19:16:15.206Z,5.02
2023-04-15T19:19:20.059Z,4.78
2023-04-15T19:22:24.766Z,4.90
2023-04-15T19:25:30.725Z,4.74
2023-04-15T19:28:35.659Z,4.71
2023-04-15T19:31:40.199Z,4.85
2023-04-15T19:34:44.936Z,4.83
2023-04-15T19:37:49.524Z,4.85
2023-04-15T19:40:54.236Z,5.02
2023-04-15T19:43:58.821Z,4.93
2023-04-15T19:47:03.354Z,5.07
2023-04-15T19:50:10.151Z,4.92
2023-04-15T19:53:14.702Z,5.05
2023-04-15T19:56:20.239Z,5.15
2023-04-15T19:59:24.852Z,4.95
2023-04-15T20:02:30.273Z,4.90
2023-04-15T20:05:35.547Z,4.87
2023-04-15T20:08:40.117Z,4.89
2023-04-15T20:12:47.931Z,4.93
2023-04-15T20:15:09.735Z,4.75
2023-04-15T20:18:14.744Z,4.78
2023-04-15T20:21:19.540Z,4.87
2023-04-15T20:24:24.325Z,4.70
2023-04-15T20:27:29.434Z,4.74
2023-04-15T20:30:34.323Z,4.67
2023-04-15T20:33:38.894Z,4.63
2023-04-15T20:36:43.570Z,4.44
2023-04-15T20:39:48.562Z,4.94
2023-04-15T20:42:53.145Z,4.52
2023-04-15T20:46:02.150Z,4.71
2023-04-15T20:49:11.474Z,4.48
2023-04-15T20:52:16.248Z,4.61
2023-04-15T20:55:20.932Z,4.54
2023-04-15T20:58:26.581Z,4.63
2023-04-15T21:01:31.280Z,4.57
2023-04-15T21:04:37.805Z,4.58
2023-04-15T21:07:42.361Z,4.84
2023-04-15T21:10:46.942Z,4.74
2023-04-15T21:13:51.594Z,4.92
2023-04-15T21:16:59.598Z,4.78
2023-04-15T21:20:04.753Z,5.08
2023-04-15T21:23:11.297Z,4.88
2023-04-15T21:26:18.464Z,4.77
2023-04-15T21:29:23.985Z,5.15
2023-04-15T21:32:30.499Z,4.93
2023-04-15T21:35:35.288Z,4.71
2023-04-15T21:38:39.760Z,5.03
2023-04-15T21:41:44.398Z,4.95
2023-04-15T21:44:48.956Z,5.02
2023-04-15T21:48:05.846Z,5.00
2023-04-15T21:51:13.022Z,5.14
2023-04-15T21:54:17.738Z,5.14
2023-04-15T21:57:22.362Z,5.24
2023-04-15T22:00:26.952Z,5.15
2023-04-15T22:03:34.420Z,5.29
2023-04-15T22:06:39.405Z,5.44
2023-04-15T22:09:43.988Z,5.41
2023-04-15T22:12:48.473Z,5.03
2023-04-15T22:15:53.064Z,5.26
2023-04-15T22:18:57.738Z,5.20
2023-04-15T22:22:02.292Z,4.98
2023-04-15T22:25:07.703Z,4.94
2023-04-15T22:28:12.918Z,5.16
2023-04-15T22:31:17.741Z,5.13
2023-04-15T22:34:22.581Z,5.02
2023-04-15T22:37:30.445Z,4.83
2023-04-15T22:40:35.131Z,4.90
2023-04-15T22:43:39.630Z,4.72
2023-04-15T22:46:44.296Z,4.61
2023-04-15T22:49:49.135Z,5.01
2023-04-15T22:52:53.697Z,4.57
2023-04-15T22:55:58.262Z,4.68
2023-04-15T22:59:02.832Z,4.59
2023-04-15T23:02:07.481Z,4.79
2023-04-15T23:05:13.379Z,4.91
2023-04-15T23:08:18.208Z,5.00
2023-04-15T23:11:22.889Z,4.86
2023-04-15T23:14:28.043Z,5.10
2023-04-15T23:17:32.682Z,5.20
2023-04-15T23:20:37.249Z,4.90
2023-04-15T23:23:41.898Z,5.17
2023-04-15T23:26:46.461Z,4.89
2023-04-15T23:29:51.228Z,5.25
2023-04-15T23:32:55.963Z,5.01
2023-04-15T23:36:00.557Z,5.28
2023-04-15T23:39:05.577Z,5.33
2023-04-15T23:42:10.684Z,4.96
2023-04-15T23:45:15.398Z,5.06
2023-04-15T23:48:20.012Z,5.14
2023-04-15T23:51:24.514Z,5.04
2023-04-15T23:54:29.110Z,4.96
2023-04-15T23:57:33.782Z,4.60
